Time;durP1;ratioP1;P1;durP2;ratioP2;P2;SDS_P1;SDS_P2;PMS_P1;PMS_P2;Temp;Humidity;BMP_temperature;BMP_pressure;BME280_temperature;BME280_humidity;BME280_pressure;Samples;Min_cycle;Max_cycle;Signal;HPM_P1;HPM_P2
2023/04/12 00:01:34;;;;;;;0.00;0.00;;;9.90;96.80;;;;;;5091367;28;20180;-59
2023/04/12 00:04:03;;;;;;;0.10;0.10;;;9.90;96.70;;;;;;5092358;28;20176;-59
2023/04/12 00:06:31;;;;;;;0.00;0.00;;;9.90;96.60;;;;;;5086318;28;20683;-59
2023/04/12 00:08:58;;;;;;;0.10;0.10;;;9.90;96.30;;;;;;5072545;28;20208;-59
2023/04/12 00:11:23;;;;;;;0.00;0.00;;;9.90;96.60;;;;;;5072219;28;20169;-59
2023/04/12 00:13:49;;;;;;;0.00;0.00;;;9.90;97.10;;;;;;5072356;28;20179;-59
2023/04/12 00:16:14;;;;;;;0.03;0.03;;;9.90;97.40;;;;;;5072106;28;20632;-60
2023/04/12 00:18:41;;;;;;;0.00;0.00;;;9.90;97.90;;;;;;5072214;28;20177;-60
2023/04/12 00:21:09;;;;;;;0.00;0.00;;;9.90;98.30;;;;;;5072147;28;20215;-59
2023/04/12 00:23:36;;;;;;;0.00;0.00;;;9.90;98.70;;;;;;5072074;28;20208;-59
2023/04/12 00:26:02;;;;;;;0.00;0.00;;;9.90;98.80;;;;;;5073250;28;20695;-59
2023/04/12 00:28:28;;;;;;;0.00;0.00;;;9.90;99.70;;;;;;5091470;28;20709;-59
2023/04/12 00:30:54;;;;;;;0.00;0.00;;;9.80;99.90;;;;;;5091636;28;20588;-59
2023/04/12 00:33:19;;;;;;;0.00;0.00;;;9.90;99.90;;;;;;5091914;28;20172;-59
2023/04/12 00:35:45;;;;;;;0.00;0.00;;;9.80;99.90;;;;;;5091995;28;20189;-59
2023/04/12 00:38:11;;;;;;;0.00;0.00;;;9.70;99.90;;;;;;5091695;28;20176;-59
2023/04/12 00:40:41;;;;;;;0.00;0.00;;;9.70;99.90;;;;;;5091499;28;20184;-59
2023/04/12 00:43:07;;;;;;;0.00;0.00;;;9.70;99.90;;;;;;5091223;28;20271;-59
2023/04/12 00:45:33;;;;;;;0.00;0.00;;;9.60;99.90;;;;;;5091126;28;20253;-59
2023/04/12 00:47:59;;;;;;;0.00;0.00;;;9.60;99.90;;;;;;5085365;28;20184;-59
2023/04/12 00:50:25;;;;;;;0.00;0.00;;;9.50;99.90;;;;;;5073536;28;20185;-60
2023/04/12 00:52:52;;;;;;;0.00;0.00;;;9.50;99.90;;;;;;5091987;28;20183;-60
2023/04/12 00:55:18;;;;;;;0.20;0.20;;;9.50;99.90;;;;;;5091023;28;20189;-59
2023/04/12 00:57:43;;;;;;;0.00;0.00;;;9.40;99.90;;;;;;5090950;28;20320;-60
2023/04/12 01:00:11;;;;;;;0.00;0.00;;;9.40;99.90;;;;;;5091490;28;20706;-60
2023/04/12 01:02:38;;;;;;;0.00;0.00;;;9.40;99.90;;;;;;5091519;28;20248;-60
2023/04/12 01:05:05;;;;;;;0.00;0.00;;;9.40;99.90;;;;;;5091243;28;20678;-60
2023/04/12 01:07:54;;;;;;;0.00;0.00;;;9.40;99.90;;;;;;5088122;28;20299;-60
2023/04/12 01:11:01;;;;;;;0.00;0.00;;;9.40;99.90;;;;;;5090335;28;20176;-60
2023/04/12 01:13:54;;;;;;;0.00;0.00;;;9.40;99.90;;;;;;5087286;28;20654;-60
2023/04/12 01:16:31;;;;;;;0.00;0.00;;;9.30;99.90;;;;;;5091073;28;20556;-60
2023/04/12 01:19:03;;;;;;;0.00;0.00;;;9.30;99.90;;;;;;5090382;28;20179;-61
2023/04/12 01:21:55;;;;;;;0.00;0.00;;;9.30;99.90;;;;;;5090329;28;20187;-61
2023/04/12 01:24:45;;;;;;;0.00;0.00;;;9.30;99.90;;;;;;5072348;28;20214;-61
2023/04/12 01:27:28;;;;;;;0.00;0.00;;;9.20;99.90;;;;;;5090137;28;20232;-61
2023/04/12 01:29:55;;;;;;;0.00;0.00;;;9.20;99.90;;;;;;5090816;28;20187;-61
2023/04/12 01:32:21;;;;;;;0.00;0.00;;;9.20;99.90;;;;;;5090494;28;20195;-61
2023/04/12 01:34:48;;;;;;;0.00;0.00;;;9.10;99.90;;;;;;5090558;28;20266;-61
2023/04/12 01:37:18;;;;;;;0.00;0.00;;;9.10;99.90;;;;;;5081441;28;20186;-60
2023/04/12 01:39:44;;;;;;;0.00;0.00;;;9.10;99.90;;;;;;5090476;28;20681;-61
2023/04/12 01:42:09;;;;;;;0.00;0.00;;;9.10;99.90;;;;;;5090349;28;20176;-60
2023/04/12 01:44:35;;;;;;;0.00;0.00;;;9.10;99.90;;;;;;5090456;28;20280;-61
2023/04/12 01:47:01;;;;;;;0.00;0.00;;;9.10;99.90;;;;;;5090005;28;20578;-61
2023/04/12 01:49:37;;;;;;;0.00;0.00;;;9.20;99.90;;;;;;5090354;28;20179;-61
2023/04/12 01:52:15;;;;;;;0.00;0.00;;;9.20;99.90;;;;;;5090450;28;20199;-60
2023/04/12 01:54:43;;;;;;;0.00;0.00;;;9.20;99.90;;;;;;5077090;28;20176;-60
2023/04/12 01:57:10;;;;;;;0.00;0.00;;;9.20;99.90;;;;;;5089805;28;20208;-60
2023/04/12 01:59:42;;;;;;;0.00;0.00;;;9.20;99.90;;;;;;5090648;28;20191;-60
2023/04/12 02:02:09;;;;;;;0.00;0.00;;;9.20;99.90;;;;;;5086901;28;20184;-60
2023/04/12 02:04:36;;;;;;;0.00;0.00;;;9.20;99.90;;;;;;5089461;28;20228;-60
2023/04/12 02:07:02;;;;;;;0.00;0.00;;;9.20;99.90;;;;;;5090086;28;20191;-60
2023/04/12 02:09:28;;;;;;;0.20;0.20;;;9.10;99.90;;;;;;5089977;28;20531;-60
2023/04/12 02:11:55;;;;;;;0.00;0.00;;;9.10;99.90;;;;;;5089983;28;20531;-60
2023/04/12 02:14:20;;;;;;;0.00;0.00;;;9.00;99.90;;;;;;5089931;28;20176;-60
2023/04/12 02:16:46;;;;;;;0.00;0.00;;;9.00;99.90;;;;;;5089753;28;20172;-60
2023/04/12 02:19:12;;;;;;;0.00;0.00;;;8.90;99.90;;;;;;5089514;28;20180;-60
2023/04/12 02:21:40;;;;;;;0.00;0.00;;;8.80;99.90;;;;;;5090281;28;20206;-61
2023/04/12 02:24:05;;;;;;;0.17;0.17;;;8.70;99.90;;;;;;5093574;28;20209;-60
2023/04/12 02:26:31;;;;;;;0.00;0.00;;;8.70;99.90;;;;;;5093393;28;20212;-60
2023/04/12 02:28:57;;;;;;;0.00;0.00;;;8.70;99.90;;;;;;5093944;28;20322;-60
2023/04/12 02:31:23;;;;;;;0.00;0.00;;;8.60;99.90;;;;;;5080484;28;20222;-60
2023/04/12 02:33:49;;;;;;;0.00;0.00;;;8.60;99.90;;;;;;5093929;28;20898;-60
2023/04/12 02:36:15;;;;;;;0.00;0.00;;;8.60;99.90;;;;;;5093520;28;20262;-60
2023/04/12 02:38:40;;;;;;;0.00;0.00;;;8.60;99.90;;;;;;5094020;28;20527;-60
2023/04/12 02:41:06;;;;;;;0.00;0.00;;;8.60;99.90;;;;;;5093488;28;20184;-60
2023/04/12 02:43:32;;;;;;;0.00;0.00;;;8.50;99.90;;;;;;5093892;28;20642;-60
2023/04/12 02:45:58;;;;;;;0.00;0.00;;;8.50;99.90;;;;;;5093114;28;20679;-60
2023/04/12 02:48:23;;;;;;;0.00;0.00;;;8.40;99.90;;;;;;5093494;28;20196;-60
2023/04/12 02:50:49;;;;;;;0.00;0.00;;;8.40;99.90;;;;;;5093583;28;20184;-60
2023/04/12 02:53:15;;;;;;;0.00;0.00;;;8.40;99.90;;;;;;5092856;28;20176;-60
2023/04/12 02:55:40;;;;;;;0.00;0.00;;;8.40;99.90;;;;;;5092968;28;20176;-60
2023/04/12 02:58:06;;;;;;;0.00;0.00;;;8.30;99.90;;;;;;5093580;28;20184;-61
2023/04/12 03:00:32;;;;;;;0.00;0.00;;;8.30;99.90;;;;;;5092929;28;20650;-60
2023/04/12 03:03:00;;;;;;;0.00;0.00;;;8.40;99.90;;;;;;5093423;28;20211;-60
2023/04/12 03:05:26;;;;;;;0.00;0.00;;;8.30;99.90;;;;;;5092640;28;20799;-60
2023/04/12 03:07:52;;;;;;;0.00;0.00;;;8.30;99.90;;;;;;5092819;28;20518;-60
2023/04/12 03:10:17;;;;;;;0.08;0.08;;;8.30;99.90;;;;;;5074623;28;20191;-60
2023/04/12 03:12:43;;;;;;;0.00;0.00;;;8.30;99.90;;;;;;5092791;28;20206;-61
2023/04/12 03:15:09;;;;;;;0.00;0.00;;;8.30;99.90;;;;;;5092994;28;20176;-61
2023/04/12 03:17:34;;;;;;;0.00;0.00;;;8.30;99.90;;;;;;5093069;28;20215;-60
2023/04/12 03:20:08;;;;;;;0.00;0.00;;;8.30;99.90;;;;;;5087836;28;20214;-60
2023/04/12 03:22:35;;;;;;;0.20;0.20;;;8.30;99.90;;;;;;5091992;28;20184;-60
2023/04/12 03:25:01;;;;;;;0.45;0.40;;;8.40;99.90;;;;;;5092778;28;20303;-60
2023/04/12 03:27:27;;;;;;;0.00;0.00;;;8.40;99.90;;;;;;5091730;28;20219;-60
2023/04/12 03:29:52;;;;;;;0.00;0.00;;;8.40;99.90;;;;;;5092346;28;20176;-60
2023/04/12 03:32:19;;;;;;;0.00;0.00;;;8.50;99.90;;;;;;5074472;28;20540;-61
2023/04/12 03:34:45;;;;;;;0.00;0.00;;;8.50;99.90;;;;;;5090614;28;20581;-60
2023/04/12 03:37:10;;;;;;;0.00;0.00;;;8.50;99.90;;;;;;5091584;28;20188;-59
2023/04/12 03:39:36;;;;;;;0.00;0.00;;;8.50;99.90;;;;;;5092521;28;20262;-59
2023/04/12 03:42:01;;;;;;;0.00;0.00;;;8.50;99.90;;;;;;5092554;28;20180;-59
2023/04/12 03:44:27;;;;;;;0.00;0.00;;;8.50;99.90;;;;;;5091490;28;20172;-60
2023/04/12 03:46:53;;;;;;;0.00;0.00;;;8.50;99.90;;;;;;5089735;28;20526;-61
2023/04/12 03:49:20;;;;;;;0.00;0.00;;;8.50;99.90;;;;;;5091625;28;20176;-63
2023/04/12 03:51:45;;;;;;;0.00;0.00;;;8.60;99.90;;;;;;5091698;28;20735;-60
2023/04/12 03:54:11;;;;;;;0.00;0.00;;;8.60;99.90;;;;;;5091413;28;20203;-60
2023/04/12 03:56:37;;;;;;;0.00;0.00;;;8.60;99.90;;;;;;5091326;28;20176;-59
2023/04/12 03:59:04;;;;;;;0.00;0.00;;;8.60;99.90;;;;;;5092021;28;20557;-60
2023/04/12 04:01:30;;;;;;;0.00;0.00;;;8.60;99.90;;;;;;5091739;28;20184;-59
2023/04/12 04:03:56;;;;;;;0.00;0.00;;;8.50;99.90;;;;;;5092226;28;20673;-59
2023/04/12 04:06:22;;;;;;;0.00;0.00;;;8.50;99.90;;;;;;5091451;28;20212;-62
2023/04/12 04:08:47;;;;;;;0.10;0.10;;;8.40;99.90;;;;;;5091471;28;20598;-60
2023/04/12 04:11:13;;;;;;;0.00;0.00;;;8.40;99.90;;;;;;5092004;28;20237;-58
2023/04/12 04:13:38;;;;;;;0.00;0.00;;;8.40;99.90;;;;;;5091508;28;20233;-62
2023/04/12 04:16:05;;;;;;;0.00;0.00;;;8.30;99.90;;;;;;5073692;28;20181;-60
2023/04/12 04:18:33;;;;;;;0.10;0.10;;;8.30;99.90;;;;;;5087926;28;20203;-60
2023/04/12 04:20:59;;;;;;;0.00;0.00;;;8.70;99.90;;;;;;5092221;28;20510;-61
2023/04/12 04:23:27;;;;;;;0.00;0.00;;;8.80;99.90;;;;;;5091902;28;20221;-60
2023/04/12 04:25:53;;;;;;;0.00;0.00;;;8.80;99.90;;;;;;5087052;28;20216;-60
2023/04/12 04:28:19;;;;;;;0.00;0.00;;;8.80;99.90;;;;;;5091835;28;20315;-61
2023/04/12 04:30:47;;;;;;;0.00;0.00;;;8.70;99.90;;;;;;5091275;28;20177;-61
2023/04/12 04:33:14;;;;;;;0.10;0.10;;;8.60;99.90;;;;;;5091638;28;20172;-60
2023/04/12 04:35:41;;;;;;;0.40;0.40;;;8.50;99.90;;;;;;5092033;28;20176;-60
2023/04/12 04:38:06;;;;;;;0.00;0.00;;;8.50;99.90;;;;;;5092037;28;20200;-60
2023/04/12 04:40:32;;;;;;;0.00;0.00;;;8.40;99.90;;;;;;5091838;28;20183;-60
2023/04/12 04:42:58;;;;;;;0.00;0.00;;;8.40;99.90;;;;;;5091830;28;20642;-60
2023/04/12 04:45:25;;;;;;;0.00;0.00;;;8.40;99.90;;;;;;5091266;28;20208;-60
2023/04/12 04:47:54;;;;;;;0.25;0.25;;;8.40;99.90;;;;;;5092017;28;20172;-60
2023/04/12 04:50:21;;;;;;;0.00;0.00;;;8.40;99.90;;;;;;5091847;28;20172;-60
2023/04/12 04:52:47;;;;;;;0.00;0.00;;;8.30;99.90;;;;;;5090926;28;20574;-60
2023/04/12 04:55:13;;;;;;;0.00;0.00;;;8.30;99.90;;;;;;5091765;28;20168;-61
2023/04/12 04:57:43;;;;;;;0.00;0.00;;;8.30;99.90;;;;;;5091399;28;20172;-60
2023/04/12 05:00:10;;;;;;;0.00;0.00;;;8.30;99.90;;;;;;5071538;28;20169;-61
2023/04/12 05:02:38;;;;;;;0.00;0.00;;;8.20;99.90;;;;;;5081660;28;20176;-60
2023/04/12 05:05:08;;;;;;;0.10;0.10;;;8.20;99.90;;;;;;5090783;28;20219;-60
2023/04/12 05:07:33;;;;;;;0.00;0.00;;;8.20;99.90;;;;;;5091000;28;20199;-61
2023/04/12 05:09:59;;;;;;;0.00;0.00;;;8.20;99.90;;;;;;5069820;28;20227;-60
2023/04/12 05:12:24;;;;;;;0.00;0.00;;;8.20;99.90;;;;;;5078120;28;20176;-60
2023/04/12 05:14:50;;;;;;;0.00;0.00;;;8.20;99.90;;;;;;5090638;28;20184;-61
2023/04/12 05:17:15;;;;;;;0.00;0.00;;;8.10;99.90;;;;;;5090898;28;20561;-60
2023/04/12 05:19:42;;;;;;;0.00;0.00;;;8.10;99.90;;;;;;5073329;28;20172;-61
2023/04/12 05:22:08;;;;;;;0.00;0.00;;;8.20;99.90;;;;;;5081691;28;20188;-61
2023/04/12 05:24:33;;;;;;;0.05;0.05;;;8.20;99.90;;;;;;5091157;28;20184;-61
2023/04/12 05:26:59;;;;;;;0.00;0.00;;;8.20;99.90;;;;;;5072547;28;20223;-61
2023/04/12 05:29:24;;;;;;;0.00;0.00;;;8.20;99.90;;;;;;5090747;28;20168;-61
2023/04/12 05:31:50;;;;;;;0.00;0.00;;;8.20;99.90;;;;;;5091252;28;20200;-61
2023/04/12 05:34:15;;;;;;;0.00;0.00;;;8.30;99.90;;;;;;5090800;28;20249;-61
2023/04/12 05:36:41;;;;;;;0.00;0.00;;;8.30;99.90;;;;;;5090902;28;20172;-61
2023/04/12 05:39:06;;;;;;;0.00;0.00;;;8.30;99.90;;;;;;5090861;28;20180;-61
2023/04/12 05:41:32;;;;;;;0.00;0.00;;;8.30;99.90;;;;;;5090718;28;20259;-61
2023/04/12 05:43:58;;;;;;;0.00;0.00;;;8.30;99.90;;;;;;5090735;28;20176;-61
2023/04/12 05:46:23;;;;;;;0.05;0.05;;;8.30;99.90;;;;;;5071750;28;20215;-61
2023/04/12 05:48:49;;;;;;;0.00;0.00;;;8.20;99.90;;;;;;5090848;28;20257;-61
2023/04/12 05:51:14;;;;;;;0.55;0.55;;;8.30;99.90;;;;;;5090408;28;20933;-60
2023/04/12 05:53:40;;;;;;;0.10;0.10;;;8.20;99.90;;;;;;5090186;28;20639;-61
2023/04/12 05:56:06;;;;;;;0.00;0.00;;;8.30;99.90;;;;;;5090894;28;20179;-61
2023/04/12 05:58:32;;;;;;;0.00;0.00;;;8.30;99.90;;;;;;5094007;28;20172;-61
2023/04/12 06:00:58;;;;;;;0.00;0.00;;;8.30;99.90;;;;;;5095072;28;20266;-61
2023/04/12 06:03:24;;;;;;;0.00;0.00;;;8.30;99.90;;;;;;5094512;28;20259;-61
2023/04/12 06:05:51;;;;;;;0.00;0.00;;;8.30;99.90;;;;;;5094693;28;21203;-61
2023/04/12 06:08:17;;;;;;;0.00;0.00;;;8.30;99.90;;;;;;5094327;28;20230;-61
2023/04/12 06:10:42;;;;;;;0.00;0.00;;;8.30;99.90;;;;;;5094884;28;20556;-60
2023/04/12 06:13:08;;;;;;;0.00;0.00;;;8.30;99.90;;;;;;5094504;28;20210;-60
2023/04/12 06:15:35;;;;;;;0.00;0.00;;;8.40;99.90;;;;;;5094463;28;20180;-61
2023/04/12 06:18:00;;;;;;;0.00;0.00;;;8.30;99.90;;;;;;5094536;28;20268;-60
2023/04/12 06:20:26;;;;;;;0.00;0.00;;;8.30;99.90;;;;;;5094220;28;20270;-61
2023/04/12 06:22:51;;;;;;;0.00;0.00;;;8.40;99.90;;;;;;5094606;28;20510;-61
2023/04/12 06:25:17;;;;;;;0.00;0.00;;;8.40;99.90;;;;;;5089429;28;20215;-61
2023/04/12 06:27:43;;;;;;;0.00;0.00;;;8.40;99.90;;;;;;5093980;28;20691;-61
2023/04/12 06:30:09;;;;;;;0.10;0.10;;;8.40;99.90;;;;;;5094160;28;20675;-61
2023/04/12 06:32:37;;;;;;;0.00;0.00;;;8.40;99.90;;;;;;5094017;28;20203;-61
2023/04/12 06:35:03;;;;;;;0.00;0.00;;;8.40;99.90;;;;;;5094171;28;20172;-60
2023/04/12 06:37:29;;;;;;;0.00;0.00;;;8.40;99.90;;;;;;5094001;28;20259;-61
2023/04/12 06:39:54;;;;;;;0.20;0.20;;;8.40;99.90;;;;;;5094175;28;20270;-60
2023/04/12 06:42:20;;;;;;;0.00;0.00;;;8.40;99.90;;;;;;5093714;28;20249;-60
2023/04/12 06:44:45;;;;;;;0.00;0.00;;;8.40;99.90;;;;;;5093938;28;20667;-61
2023/04/12 06:47:11;;;;;;;0.10;0.10;;;8.40;99.90;;;;;;5075907;28;20635;-61
2023/04/12 06:49:37;;;;;;;0.00;0.00;;;8.50;99.90;;;;;;5093446;28;20290;-59
2023/04/12 06:52:03;;;;;;;0.00;0.00;;;8.50;99.90;;;;;;5093659;28;20615;-60
2023/04/12 06:54:28;;;;;;;0.00;0.00;;;8.50;99.90;;;;;;5093064;28;20176;-60
2023/04/12 06:56:55;;;;;;;0.00;0.00;;;8.60;99.90;;;;;;5093622;28;20180;-60
2023/04/12 06:59:20;;;;;;;0.00;0.00;;;8.60;99.90;;;;;;5093773;28;20165;-60
2023/04/12 07:01:46;;;;;;;0.00;0.00;;;8.70;99.90;;;;;;5093246;28;20186;-60
2023/04/12 07:04:11;;;;;;;0.00;0.00;;;8.70;99.90;;;;;;5075625;28;20191;-61
2023/04/12 07:06:37;;;;;;;0.00;0.00;;;8.80;99.90;;;;;;5093229;28;20674;-60
2023/04/12 07:09:03;;;;;;;0.00;0.00;;;8.80;99.90;;;;;;5075616;28;20203;-60
2023/04/12 07:11:30;;;;;;;0.00;0.00;;;8.90;99.90;;;;;;5092795;28;20219;-61
2023/04/12 07:13:57;;;;;;;0.00;0.00;;;8.90;99.90;;;;;;5093923;28;20248;-60
2023/04/12 07:16:23;;;;;;;0.03;0.03;;;9.00;99.90;;;;;;5093474;28;20192;-60
2023/04/12 07:18:49;;;;;;;0.10;0.10;;;9.00;99.90;;;;;;5093626;28;20678;-60
2023/04/12 07:21:16;;;;;;;0.00;0.00;;;9.10;99.90;;;;;;5093063;28;20172;-60
2023/04/12 07:23:42;;;;;;;0.00;0.00;;;9.10;99.90;;;;;;5093774;28;20164;-60
2023/04/12 07:26:07;;;;;;;0.00;0.00;;;9.10;99.90;;;;;;5092340;28;20779;-60
2023/04/12 07:28:34;;;;;;;0.00;0.00;;;9.20;99.90;;;;;;5093266;28;20208;-60
2023/04/12 07:31:05;;;;;;;0.00;0.00;;;9.20;99.90;;;;;;5081973;28;20213;-60
2023/04/12 07:33:30;;;;;;;0.00;0.00;;;9.20;99.90;;;;;;5055898;28;20173;-61
2023/04/12 07:35:56;;;;;;;0.00;0.00;;;9.30;99.90;;;;;;5073221;28;20180;-60
2023/04/12 07:38:22;;;;;;;0.00;0.00;;;9.30;99.90;;;;;;5089171;28;20183;-60
2023/04/12 07:40:47;;;;;;;0.00;0.00;;;9.40;99.90;;;;;;5075388;28;20176;-60
2023/04/12 07:43:14;;;;;;;0.00;0.00;;;9.30;99.90;;;;;;5075071;28;20213;-60
2023/04/12 07:45:40;;;;;;;0.10;0.10;;;9.40;99.90;;;;;;5092927;28;20200;-60
2023/04/12 07:48:06;;;;;;;0.00;0.00;;;9.50;99.90;;;;;;5093290;28;20169;-61
2023/04/12 07:50:31;;;;;;;0.00;0.00;;;9.60;99.90;;;;;;5093041;28;20180;-61
2023/04/12 07:53:15;;;;;;;0.00;0.00;;;9.60;99.90;;;;;;5093161;28;20225;-61
2023/04/12 07:55:41;;;;;;;0.00;0.00;;;9.60;99.90;;;;;;5093088;28;20220;-59
2023/04/12 07:58:06;;;;;;;0.00;0.00;;;9.70;99.90;;;;;;5092845;28;20168;-59
2023/04/12 08:00:33;;;;;;;0.00;0.00;;;9.80;99.90;;;;;;5092667;28;20172;-59
2023/04/12 08:02:59;;;;;;;0.00;0.00;;;9.80;99.90;;;;;;5092845;28;20847;-59
2023/04/12 08:05:24;;;;;;;0.00;0.00;;;9.80;99.90;;;;;;5092713;28;20261;-59
2023/04/12 08:07:50;;;;;;;0.00;0.00;;;9.80;99.90;;;;;;5093035;28;20180;-60
2023/04/12 08:10:15;;;;;;;0.00;0.00;;;9.90;99.90;;;;;;5092654;28;20651;-60
2023/04/12 08:12:41;;;;;;;0.00;0.00;;;9.90;99.90;;;;;;5092714;28;20226;-62
2023/04/12 08:15:07;;;;;;;0.00;0.00;;;9.90;99.90;;;;;;5074628;28;20177;-61
2023/04/12 08:17:32;;;;;;;0.00;0.00;;;10.00;99.90;;;;;;5092384;28;20175;-61
2023/04/12 08:19:58;;;;;;;0.00;0.00;;;10.10;99.90;;;;;;5092077;28;20681;-61
2023/04/12 08:22:23;;;;;;;0.00;0.00;;;10.20;99.90;;;;;;5092403;28;20267;-61
2023/04/12 08:24:49;;;;;;;0.40;0.32;;;10.20;99.90;;;;;;5092343;28;20208;-61
2023/04/12 08:27:15;;;;;;;0.00;0.00;;;10.20;99.90;;;;;;5091964;28;20228;-61
2023/04/12 08:29:40;;;;;;;0.00;0.00;;;10.20;99.90;;;;;;5074033;28;20179;-61
2023/04/12 08:32:08;;;;;;;0.47;0.47;;;10.30;99.90;;;;;;5074265;28;20168;-61
2023/04/12 08:34:34;;;;;;;0.00;0.00;;;10.30;99.90;;;;;;5091476;28;20180;-61
2023/04/12 08:36:59;;;;;;;0.00;0.00;;;10.40;99.90;;;;;;5091750;28;20211;-61
2023/04/12 08:39:25;;;;;;;0.00;0.00;;;10.50;99.90;;;;;;5092112;28;20176;-61
2023/04/12 08:41:52;;;;;;;0.00;0.00;;;10.80;99.90;;;;;;5091931;28;20654;-61
2023/04/12 08:44:23;;;;;;;0.00;0.00;;;11.30;99.90;;;;;;5091613;28;20175;-61
2023/04/12 08:46:49;;;;;;;0.00;0.00;;;11.50;99.90;;;;;;5091950;28;20220;-61
2023/04/12 08:49:15;;;;;;;0.00;0.00;;;11.60;99.90;;;;;;5092002;28;20279;-61
2023/04/12 08:51:42;;;;;;;0.00;0.00;;;11.70;99.90;;;;;;5092009;28;20606;-61
2023/04/12 08:54:07;;;;;;;0.00;0.00;;;11.80;99.90;;;;;;5091898;28;20172;-61
2023/04/12 08:56:33;;;;;;;0.00;0.00;;;11.90;99.90;;;;;;5073785;28;20521;-62
2023/04/12 08:58:59;;;;;;;0.00;0.00;;;12.10;99.90;;;;;;5091876;28;20677;-62
2023/04/12 09:01:25;;;;;;;0.00;0.00;;;12.20;99.90;;;;;;5091463;28;20179;-60
2023/04/12 09:03:51;;;;;;;0.00;0.00;;;12.30;99.90;;;;;;5071638;28;20173;-61
2023/04/12 09:06:16;;;;;;;0.00;0.00;;;12.30;99.90;;;;;;5086461;28;20227;-61
2023/04/12 09:08:55;;;;;;;0.00;0.00;;;12.50;99.90;;;;;;5091552;28;20187;-61
2023/04/12 09:11:26;;;;;;;0.00;0.00;;;12.40;99.90;;;;;;5091331;28;20245;-60
2023/04/12 09:13:54;;;;;;;0.00;0.00;;;12.30;99.90;;;;;;5091060;28;20665;-60
2023/04/12 09:16:41;;;;;;;0.00;0.00;;;12.20;99.90;;;;;;5091177;28;20168;-61
2023/04/12 09:19:08;;;;;;;0.00;0.00;;;12.10;99.90;;;;;;5091622;28;20545;-60
2023/04/12 09:21:35;;;;;;;0.00;0.00;;;12.10;99.90;;;;;;5053258;28;20184;-60
2023/04/12 09:24:12;;;;;;;0.00;0.00;;;12.00;99.90;;;;;;5071465;28;20192;-61
2023/04/12 09:26:37;;;;;;;0.00;0.00;;;12.00;99.90;;;;;;5087459;28;20227;-60
2023/04/12 09:29:03;;;;;;;0.00;0.00;;;12.00;99.90;;;;;;5091456;28;20306;-60
2023/04/12 09:31:29;;;;;;;0.00;0.00;;;11.90;99.90;;;;;;5072169;28;20172;-60
2023/04/12 09:34:07;;;;;;;0.00;0.00;;;11.90;99.90;;;;;;5079345;28;20195;-59
2023/04/12 09:36:39;;;;;;;0.00;0.00;;;11.80;99.90;;;;;;5070959;28;20208;-59
2023/04/12 09:39:06;;;;;;;0.00;0.00;;;11.70;99.90;;;;;;5071336;28;20541;-59
2023/04/12 09:41:32;;;;;;;0.00;0.00;;;11.60;99.90;;;;;;5071023;28;20266;-59
2023/04/12 09:44:01;;;;;;;0.00;0.00;;;11.60;99.90;;;;;;5071268;28;20663;-59
2023/04/12 09:46:27;;;;;;;0.00;0.00;;;11.60;99.90;;;;;;5086865;28;20222;-59
2023/04/12 09:48:54;;;;;;;0.00;0.00;;;11.70;99.90;;;;;;5091371;28;20529;-59
2023/04/12 09:51:27;;;;;;;0.00;0.00;;;11.80;99.90;;;;;;5091072;28;20224;-59
2023/04/12 09:54:02;;;;;;;0.00;0.00;;;12.00;99.90;;;;;;5091263;28;20253;-60
2023/04/12 09:56:35;;;;;;;0.00;0.00;;;12.20;99.90;;;;;;5091244;28;20229;-60
2023/04/12 09:59:03;;;;;;;0.00;0.00;;;12.40;99.90;;;;;;5091212;28;20250;-60
2023/04/12 10:01:34;;;;;;;0.00;0.00;;;12.40;99.90;;;;;;5090459;28;20176;-59
2023/04/12 10:04:00;;;;;;;0.00;0.00;;;12.50;99.90;;;;;;5091037;28;20595;-59
2023/04/12 10:06:26;;;;;;;0.00;0.00;;;12.50;99.90;;;;;;5090775;28;20603;-60
2023/04/12 10:08:53;;;;;;;0.00;0.00;;;12.40;99.90;;;;;;5090908;28;20559;-59
2023/04/12 10:11:18;;;;;;;1.15;1.13;;;12.40;99.90;;;;;;5090729;28;20179;-60
2023/04/12 10:13:45;;;;;;;0.00;0.00;;;12.40;99.90;;;;;;5091109;28;20241;-60
2023/04/12 10:16:12;;;;;;;0.00;0.00;;;12.50;99.90;;;;;;5072600;28;20627;-60
2023/04/12 10:18:38;;;;;;;0.00;0.00;;;12.60;99.90;;;;;;5090562;28;20206;-58
2023/04/12 10:21:04;;;;;;;0.00;0.00;;;12.70;99.90;;;;;;5090952;28;20219;-58
2023/04/12 10:23:33;;;;;;;0.00;0.00;;;12.80;99.90;;;;;;5090682;28;20167;-58
2023/04/12 10:25:59;;;;;;;0.00;0.00;;;12.90;99.90;;;;;;5090607;28;20251;-58
2023/04/12 10:28:25;;;;;;;0.00;0.00;;;12.90;99.90;;;;;;5090612;28;20232;-58
2023/04/12 10:30:53;;;;;;;0.00;0.00;;;12.90;99.90;;;;;;5072747;28;20300;-58
2023/04/12 10:33:29;;;;;;;0.00;0.00;;;12.90;99.90;;;;;;5083781;28;20193;-58
2023/04/12 10:36:09;;;;;;;0.00;0.00;;;13.00;99.90;;;;;;5052571;28;20188;-58
2023/04/12 10:38:46;;;;;;;0.00;0.00;;;13.10;99.90;;;;;;5087402;28;20757;-58
2023/04/12 10:41:14;;;;;;;0.00;0.00;;;13.20;99.90;;;;;;5090510;28;20187;-58
2023/04/12 10:43:47;;;;;;;0.00;0.00;;;13.20;99.90;;;;;;5092655;28;20168;-58
2023/04/12 10:46:37;;;;;;;0.00;0.00;;;13.20;99.90;;;;;;5094154;28;20214;-58
2023/04/12 10:49:11;;;;;;;0.00;0.00;;;13.20;99.90;;;;;;5094371;28;20255;-59
2023/04/12 10:51:36;;;;;;;0.00;0.00;;;13.20;99.90;;;;;;5094066;28;20550;-58
2023/04/12 10:54:14;;;;;;;0.00;0.00;;;13.30;99.90;;;;;;5094064;28;20172;-59
2023/04/12 10:56:41;;;;;;;0.00;0.00;;;13.40;99.90;;;;;;5094191;28;20179;-59
2023/04/12 10:59:08;;;;;;;0.00;0.00;;;13.50;99.90;;;;;;5094448;28;20631;-59
2023/04/12 11:01:34;;;;;;;0.00;0.00;;;13.70;99.90;;;;;;5093704;28;20184;-59
2023/04/12 11:04:20;;;;;;;0.00;0.00;;;13.80;99.90;;;;;;5075793;28;20179;-59
2023/04/12 11:06:51;;;;;;;0.00;0.00;;;13.90;99.90;;;;;;5084750;28;20215;-59
2023/04/12 11:09:17;;;;;;;0.00;0.00;;;13.90;99.90;;;;;;5093498;28;20186;-58
2023/04/12 11:11:43;;;;;;;0.00;0.00;;;14.00;99.90;;;;;;5093629;28;20187;-59
2023/04/12 11:14:09;;;;;;;0.00;0.00;;;14.00;99.90;;;;;;5093982;28;20168;-59
2023/04/12 11:17:06;;;;;;;0.00;0.00;;;14.00;99.90;;;;;;5093351;28;20198;-58
2023/04/12 11:19:33;;;;;;;0.00;0.00;;;14.00;99.90;;;;;;5093556;28;20169;-59
2023/04/12 11:22:06;;;;;;;0.00;0.00;;;14.00;99.90;;;;;;5093377;28;20684;-59
2023/04/12 11:24:32;;;;;;;0.00;0.00;;;14.00;99.90;;;;;;5093596;28;20273;-59
2023/04/12 11:26:58;;;;;;;0.00;0.00;;;14.10;99.90;;;;;;5093004;28;20256;-60
2023/04/12 11:29:25;;;;;;;0.00;0.00;;;14.10;99.90;;;;;;5093624;28;20527;-58
2023/04/12 11:31:50;;;;;;;0.00;0.00;;;14.10;99.90;;;;;;5093237;28;20206;-58
2023/04/12 11:34:17;;;;;;;0.00;0.00;;;14.10;99.90;;;;;;5080570;28;20905;-59
2023/04/12 11:37:04;;;;;;;0.00;0.00;;;14.20;99.90;;;;;;5074094;28;20537;-59
2023/04/12 11:39:30;;;;;;;0.00;0.00;;;14.20;99.90;;;;;;5072961;28;20579;-59
2023/04/12 11:41:56;;;;;;;0.00;0.00;;;14.40;99.90;;;;;;5078069;28;20275;-59
2023/04/12 11:44:22;;;;;;;0.00;0.00;;;14.70;99.90;;;;;;5091337;28;20710;-59
2023/04/12 11:46:48;;;;;;;0.00;0.00;;;14.80;99.90;;;;;;5083134;28;20237;-59
2023/04/12 11:49:16;;;;;;;0.00;0.00;;;14.80;99.90;;;;;;5093221;28;20313;-60
2023/04/12 11:51:41;;;;;;;0.00;0.00;;;14.80;99.90;;;;;;5093171;28;20553;-60
2023/04/12 11:54:07;;;;;;;0.00;0.00;;;14.80;99.90;;;;;;5091706;28;20253;-60
2023/04/12 11:56:32;;;;;;;0.00;0.00;;;14.90;99.90;;;;;;5092482;28;20180;-59
2023/04/12 11:58:58;;;;;;;0.00;0.00;;;14.80;99.90;;;;;;5092812;28;20259;-60
2023/04/12 12:01:24;;;;;;;0.00;0.00;;;14.70;99.90;;;;;;5092016;28;20366;-60
2023/04/12 12:03:50;;;;;;;0.00;0.00;;;14.60;99.90;;;;;;5092709;28;20176;-60
2023/04/12 12:06:16;;;;;;;0.00;0.00;;;14.60;99.90;;;;;;5092475;28;20230;-59
2023/04/12 12:08:42;;;;;;;0.00;0.00;;;14.50;99.90;;;;;;5092382;28;20176;-59
2023/04/12 12:11:08;;;;;;;0.00;0.00;;;14.40;99.90;;;;;;5092505;28;20194;-60
2023/04/12 12:13:51;;;;;;;0.00;0.00;;;14.30;99.90;;;;;;5092724;28;20180;-60
2023/04/12 12:16:18;;;;;;;0.00;0.00;;;14.20;99.90;;;;;;5092471;28;20642;-59
2023/04/12 12:18:45;;;;;;;0.00;0.00;;;14.20;99.90;;;;;;5092793;28;20218;-59
2023/04/12 12:21:13;;;;;;;0.00;0.00;;;14.10;99.90;;;;;;5092564;28;20161;-60
2023/04/12 12:23:42;;;;;;;0.00;0.00;;;14.10;99.90;;;;;;5092617;28;20176;-59
2023/04/12 12:26:07;;;;;;;0.00;0.00;;;14.00;99.90;;;;;;5092502;28;20304;-59
2023/04/12 12:28:39;;;;;;;0.00;0.00;;;14.00;99.90;;;;;;5092099;28;20247;-59
2023/04/12 12:31:06;;;;;;;0.00;0.00;;;14.10;99.90;;;;;;5073783;28;20313;-59
2023/04/12 12:33:41;;;;;;;0.00;0.00;;;14.20;99.90;;;;;;5092235;28;20183;-59
2023/04/12 12:36:08;;;;;;;0.00;0.00;;;14.20;99.90;;;;;;5091841;28;20921;-59
2023/04/12 12:38:38;;;;;;;0.00;0.00;;;14.20;99.90;;;;;;5073098;28;20183;-59
2023/04/12 12:41:23;;;;;;;0.00;0.00;;;14.20;99.90;;;;;;5091350;28;20658;-59
2023/04/12 12:43:51;;;;;;;0.00;0.00;;;14.10;99.90;;;;;;5092150;28;20568;-60
2023/04/12 12:46:18;;;;;;;0.00;0.00;;;14.20;99.90;;;;;;5081343;28;20212;-59
2023/04/12 12:48:45;;;;;;;0.00;0.00;;;14.10;99.90;;;;;;5089189;28;20263;-59
2023/04/12 12:51:12;;;;;;;0.00;0.00;;;14.10;99.90;;;;;;5091842;28;20214;-59
2023/04/12 12:53:39;;;;;;;0.00;0.00;;;14.20;99.90;;;;;;5091012;28;20180;-59
2023/04/12 12:56:06;;;;;;;0.00;0.00;;;14.20;99.90;;;;;;5091906;28;20179;-59